| time (UTC) | temp F | wind direction | speed MPH | gust MPH | rain 1hr in | rain 24hr in | rain mn in | humidity % | barometer mb |
| 20260510203840 | 75 | 0 | 4.0 | 4.0 | 0.00 | 0.00 | 0.00 | 59 | |
| 20260510202852 | 76 | 315 | 4.0 | 4.0 | 0.00 | 0.00 | 0.00 | 58 | |
| 20260510202840 | 76 | 338 | 3.0 | 3.0 | 0.00 | 0.00 | 0.00 | 58 | |
| 20260510201840 | 77 | 338 | 6.0 | 6.0 | 0.00 | 0.00 | 0.00 | 55 | |
| 20260510200854 | 78 | 338 | 5.0 | 5.0 | 0.00 | 0.00 | 0.00 | 57 | |
| 20260510200840 | 77 | 338 | 4.0 | 4.0 | 0.00 | 0.00 | 0.00 | 57 | |
| 20260510195840 | 76 | 338 | 7.0 | 7.0 | 0.00 | 0.00 | 0.00 | 57 | |
| 20260510194840 | 77 | 315 | 9.0 | 9.0 | 0.00 | 0.00 | 0.00 | 56 | |
| 20260510193852 | 77 | 315 | 4.0 | 4.0 | 0.00 | 0.00 | 0.00 | 54 | |
| 20260510193840 | 77 | 338 | 4.0 | 4.0 | 0.00 | 0.00 | 0.00 | 54 | |
| 20260510192840 | 76 | 270 | 3.0 | 3.0 | 0.00 | 0.00 | 0.00 | 55 | |
| 20260510191839 | 77 | 338 | 6.0 | 6.0 | 0.00 | 0.00 | 0.00 | 53 | |
| 20260510190840 | 78 | 270 | 8.0 | 8.0 | 0.00 | 0.00 | 0.00 | 46 | |
| 20260510185839 | 78 | 203 | 8.0 | 8.0 | 0.00 | 0.00 | 0.00 | 47 | |
| 20260510184851 | 78 | 225 | 4.0 | 4.0 | 0.00 | 0.00 | 0.00 | 49 | |
| 20260510184839 | 78 | 225 | 3.0 | 3.0 | 0.00 | 0.00 | 0.00 | 49 | |
| 20260510183839 | 80 | 248 | 7.0 | 7.0 | 0.00 | 0.00 | 0.00 | 46 | |
| 20260510182839 | 80 | 203 | 4.0 | 4.0 | 0.00 | 0.00 | 0.00 | 46 | |
| 20260510181839 | 79 | 203 | 9.0 | 9.0 | 0.00 | 0.00 | 0.00 | 48 | |
| 20260510180851 | 80 | 225 | 4.0 | 4.0 | 0.00 | 0.00 | 0.00 | 46 | |
| 20260510180839 | 80 | 225 | 6.0 | 6.0 | 0.00 | 0.00 | 0.00 | 46 | |
| 20260510175839 | 80 | 270 | 10.0 | 10.0 | 0.00 | 0.00 | 0.00 | 47 | |
| 20260510174851 | 81 | 203 | 8.0 | 8.0 | 0.00 | 0.00 | 0.00 | 47 | |
| 20260510174839 | 81 | 203 | 9.0 | 9.0 | 0.00 | 0.00 | 0.00 | 47 | |
| 20260510173851 | 80 | 203 | 10.0 | 10.0 | 0.00 | 0.00 | 0.00 | 45 | |
| 20260510173839 | 80 | 158 | 11.0 | 11.0 | 0.00 | 0.00 | 0.00 | 45 | |
| 20260510172839 | 79 | 203 | 7.0 | 7.0 | 0.00 | 0.00 | 0.00 | 45 | |
| 20260510171839 | 78 | 225 | 8.0 | 8.0 | 0.00 | 0.00 | 0.00 | 48 | |
| 20260510170839 | 79 | 158 | 6.0 | 6.0 | 0.00 | 0.00 | 0.00 | 51 | |
| 20260510165850 | 79 | 270 | 5.0 | 5.0 | 0.00 | 0.00 | 0.00 | 50 | |
| 20260510165839 | 80 | 270 | 4.0 | 4.0 | 0.00 | 0.00 | 0.00 | 49 | |
| 20260510164839 | 80 | 248 | 9.0 | 9.0 | 0.00 | 0.00 | 0.00 | 50 | |
| 20260510163839 | 78 | 158 | 5.0 | 5.0 | 0.00 | 0.00 | 0.00 | 54 | |
| 20260510162839 | 78 | 203 | 9.0 | 9.0 | 0.00 | 0.00 | 0.00 | 54 | |
| 20260510161839 | 78 | 225 | 5.0 | 5.0 | 0.00 | 0.00 | 0.00 | 55 | |
| 20260510160839 | 78 | 270 | 5.0 | 5.0 | 0.00 | 0.00 | 0.00 | 53 | |
| 20260510155915 | 77 | 203 | 5.0 | 5.0 | 0.00 | 0.00 | 0.00 | 56 | |
| 20260510155839 | 77 | 203 | 5.0 | 5.0 | 0.00 | 0.00 | 0.00 | 56 | |
| 20260510154839 | 77 | 270 | 4.0 | 4.0 | 0.00 | 0.00 | 0.00 | 56 | |
| 20260510153839 | 76 | 225 | 2.0 | 2.0 | 0.00 | 0.00 | 0.00 | 58 | |
| 20260510152839 | 75 | 68 | 2.0 | 2.0 | 0.00 | 0.00 | 0.00 | 61 | |
| 20260510151850 | 73 | 293 | 4.0 | 4.0 | 0.00 | 0.00 | 0.00 | 61 | |
| 20260510151839 | 73 | 293 | 5.0 | 5.0 | 0.00 | 0.00 | 0.00 | 60 | |
| 20260510150839 | 74 | 338 | 3.0 | 3.0 | 0.00 | 0.00 | 0.00 | 60 | |
| 20260510145851 | 73 | 23 | 3.0 | 3.0 | 0.00 | 0.00 | 0.00 | 62 | |
| 20260510145839 | 73 | 338 | 5.0 | 5.0 | 0.00 | 0.00 | 0.00 | 62 | |
| 20260510145043 | 72 | 248 | 6.0 | 6.0 | 0.00 | 0.00 | 0.00 | 66 | |
| 20260510144839 | 72 | 248 | 6.0 | 6.0 | 0.00 | 0.00 | 0.00 | 66 | |
| 20260510143850 | 71 | 248 | 5.0 | 5.0 | 0.00 | 0.00 | 0.00 | 66 | |
| 20260510143839 | 71 | 248 | 6.0 | 6.0 | 0.00 | 0.00 | 0.00 | 66 | |
| 20260510142840 | 70 | 203 | 6.0 | 6.0 | 0.00 | 0.00 | 0.00 | 68 | |
| 20260510142519 | 65 | 293 | 3.0 | 3.0 | 0.00 | 0.00 | 0.00 | 78 | |
| 20260510141840 | 69 | 203 | 4.0 | 4.0 | 0.00 | 0.00 | 0.00 | 73 | |
| 20260510140851 | 70 | 293 | 4.0 | 4.0 | 0.00 | 0.00 | 0.00 | 72 | |
| 20260510140840 | 69 | 293 | 4.0 | 4.0 | 0.00 | 0.00 | 0.00 | 72 | |
| 20260510135840 | 67 | 293 | 4.0 | 4.0 | 0.00 | 0.00 | 0.00 | 76 | |
| 20260510134851 | 65 | 293 | 3.0 | 3.0 | 0.00 | 0.00 | 0.00 | 78 | |
| 20260510134840 | 65 | 315 | 2.0 | 2.0 | 0.00 | 0.00 | 0.00 | 78 | |
| 20260510133840 | 65 | 203 | 3.0 | 3.0 | 0.00 | 0.00 | 0.00 | 79 | |
| 20260510132851 | 64 | 180 | 4.0 | 4.0 | 0.00 | 0.00 | 0.00 | 80 | |
| 20260510132840 | 64 | 180 | 3.0 | 3.0 | 0.00 | 0.00 | 0.00 | 80 | |
| 20260510131840 | 64 | 45 | 3.0 | 3.0 | 0.00 | 0.00 | 0.00 | 80 | |
| 20260510130839 | 64 | 23 | 3.0 | 3.0 | 0.00 | 0.00 | 0.00 | 83 | |
| 20260510125839 | 60 | 270 | 2.0 | 2.0 | 0.00 | 0.00 | 0.00 | 87 | |
| 20260510124839 | 61 | 315 | 4.0 | 4.0 | 0.00 | 0.00 | 0.00 | 84 | |
| 20260510123936 | 60 | 248 | 0.0 | 0.0 | 0.00 | 0.00 | 0.00 | 87 | |
| 20260510123851 | 60 | 248 | 0.0 | 0.0 | 0.00 | 0.00 | 0.00 | 87 | |
| 20260510123839 | 60 | 315 | 1.0 | 1.0 | 0.00 | 0.00 | 0.00 | 87 | |
| 20260510122839 | 58 | 90 | 3.0 | 3.0 | 0.00 | 0.00 | 0.00 | 91 | |
| 20260510121839 | 55 | 293 | 0.0 | 0.0 | 0.00 | 0.00 | 0.00 | 95 | |
| 20260510120839 | 55 | 45 | 3.0 | 3.0 | 0.00 | 0.00 | 0.00 | 96 | |
| 20260510115839 | 54 | 0 | 3.0 | 3.0 | 0.00 | 0.00 | 0.00 | 98 | |
| 20260510115124 | 53 | 23 | 5.0 | 5.0 | 0.00 | 0.00 | 0.00 | 99 | |
| 20260510114839 | 53 | 23 | 5.0 | 5.0 | 0.00 | 0.00 | 0.00 | 99 | |
| 20260510113839 | 53 | 338 | 4.0 | 4.0 | 0.00 | 0.00 | 0.00 | 99 | |
| 20260510112839 | 53 | 338 | 3.0 | 3.0 | 0.00 | 0.00 | 0.00 | 99 | |
| 20260510111839 | 53 | 338 | 4.0 | 4.0 | 0.00 | 0.00 | 0.00 | 99 | |
| 20260510110852 | 52 | 315 | 3.0 | 3.0 | 0.00 | 0.00 | 0.00 | 99 | |
| 20260510110839 | 52 | 315 | 4.0 | 4.0 | 0.00 | 0.00 | 0.00 | 99 | |
| 20260510105839 | 52 | 68 | 2.0 | 2.0 | 0.00 | 0.00 | 0.00 | 99 | |
| 20260510104839 | 52 | 90 | 0.0 | 0.0 | 0.00 | 0.00 | 0.00 | 99 | |
| 20260510103839 | 51 | 338 | 2.0 | 2.0 | 0.00 | 0.00 | 0.00 | 99 | |
| 20260510102839 | 51 | 0 | 3.0 | 3.0 | 0.00 | 0.00 | 0.00 | 99 | |
| 20260510101852 | 51 | 23 | 2.0 | 2.0 | 0.00 | 0.00 | 0.00 | 99 | |
| 20260510101839 | 51 | 68 | 2.0 | 2.0 | 0.00 | 0.00 | 0.00 | 99 | |
| 20260510100839 | 51 | 338 | 2.0 | 2.0 | 0.00 | 0.00 | 0.00 | 99 | |
| 20260510095839 | 51 | 45 | 0.0 | 0.0 | 0.00 | 0.00 | 0.00 | 99 | |
| 20260510094839 | 50 | 338 | 4.0 | 4.0 | 0.00 | 0.00 | 0.00 | 99 | |
| 20260510093839 | 50 | 68 | 0.0 | 0.0 | 0.00 | 0.00 | 0.00 | 99 | |
| 20260510092839 | 49 | 338 | 3.0 | 3.0 | 0.00 | 0.00 | 0.00 | 99 | |
| 20260510091839 | 49 | 315 | 3.0 | 3.0 | 0.00 | 0.00 | 0.00 | 99 | |
| 20260510090851 | 48 | 293 | 3.0 | 3.0 | 0.00 | 0.00 | 0.00 | 99 | |
| 20260510090839 | 48 | 315 | 0.0 | 0.0 | 0.00 | 0.00 | 0.00 | 99 | |
| 20260510085839 | 49 | 0 | 0.0 | 0.0 | 0.00 | 0.00 | 0.00 | 99 | |
| 20260510084850 | 49 | 315 | 2.0 | 2.0 | 0.00 | 0.00 | 0.00 | 99 | |
| 20260510084839 | 49 | 315 | 0.0 | 0.0 | 0.00 | 0.00 | 0.00 | 99 | |
| 20260510083839 | 49 | 338 | 1.0 | 1.0 | 0.00 | 0.00 | 0.00 | 99 | |
| 20260510082839 | 49 | 23 | 3.0 | 3.0 | 0.00 | 0.00 | 0.00 | 99 | |
| 20260510081840 | 49 | 315 | 2.0 | 2.0 | 0.00 | 0.00 | 0.00 | 99 | |
| 20260510080840 | 49 | 293 | 2.0 | 2.0 | 0.00 | 0.00 | 0.00 | 99 | |
| 20260510075840 | 49 | 0 | 2.0 | 2.0 | 0.00 | 0.00 | 0.00 | 99 | |
| 20260510074840 | 49 | 315 | 4.0 | 4.0 | 0.00 | 0.00 | 0.00 | 99 | |
| 20260510073840 | 49 | 270 | 0.0 | 0.0 | 0.00 | 0.00 | 0.00 | 99 | |
| 20260510072840 | 50 | 158 | 0.0 | 0.0 | 0.00 | 0.00 | 0.00 | 99 | |
| 20260510071840 | 50 | 158 | 0.0 | 0.0 | 0.00 | 0.00 | 0.00 | 99 | |
| 20260510070840 | 49 | 203 | 0.0 | 0.0 | 0.00 | 0.00 | 0.00 | 99 | |
| 20260510070030 | 50 | 180 | 0.0 | 0.0 | 0.00 | 0.00 | 0.00 | 99 | |
| 20260510065839 | 50 | 180 | 0.0 | 0.0 | 0.00 | 0.00 | 0.00 | 99 | |
| 20260510064931 | 50 | 45 | 2.0 | 2.0 | 0.00 | 0.00 | 0.00 | 99 | |
| 20260510064851 | 50 | 45 | 2.0 | 2.0 | 0.00 | 0.00 | 0.00 | 99 | |
| 20260510064839 | 50 | 23 | 2.0 | 2.0 | 0.00 | 0.00 | 0.00 | 99 | |
| 20260510063947 | 50 | 23 | 2.0 | 2.0 | 0.00 | 0.00 | 0.00 | 98 | |
| 20260510063839 | 50 | 23 | 2.0 | 2.0 | 0.00 | 0.00 | 0.00 | 98 | |
| 20260510062949 | 49 | 90 | 0.0 | 0.0 | 0.00 | 0.00 | 0.00 | 98 | |
| 20260510062839 | 49 | 90 | 0.0 | 0.0 | 0.00 | 0.00 | 0.00 | 98 | |
| 20260510061923 | 50 | 270 | 0.0 | 0.0 | 0.00 | 0.00 | 0.00 | 98 | |
| 20260510061839 | 50 | 270 | 0.0 | 0.0 | 0.00 | 0.00 | 0.00 | 98 | |
| 20260510061003 | 50 | 45 | 0.0 | 0.0 | 0.00 | 0.00 | 0.00 | 98 | |
| 20260510060839 | 50 | 45 | 0.0 | 0.0 | 0.00 | 0.00 | 0.00 | 98 | |
| 20260510055951 | 50 | 23 | 0.0 | 0.0 | 0.00 | 0.00 | 0.00 | 98 | |
| 20260510055852 | 50 | 23 | 0.0 | 0.0 | 0.00 | 0.00 | 0.00 | 98 | |
| 20260510055839 | 50 | 45 | 0.0 | 0.0 | 0.00 | 0.00 | 0.00 | 98 | |
| 20260510055120 | 51 | 45 | 0.0 | 0.0 | 0.00 | 0.00 | 0.00 | 98 | |
| 20260510054839 | 51 | 45 | 0.0 | 0.0 | 0.00 | 0.00 | 0.00 | 98 | |
| 20260510054001 | 51 | 23 | 0.0 | 0.0 | 0.00 | 0.00 | 0.00 | 97 | |
| 20260510053839 | 51 | 23 | 0.0 | 0.0 | 0.00 | 0.00 | 0.00 | 97 | |
| 20260510052925 | 51 | 158 | 0.0 | 0.0 | 0.00 | 0.00 | 0.00 | 97 | |
| 20260510052840 | 51 | 158 | 0.0 | 0.0 | 0.00 | 0.00 | 0.00 | 97 | |
| 20260510051839 | 51 | 0 | 2.0 | 2.0 | 0.00 | 0.00 | 0.00 | 97 | |
| 20260510050839 | 51 | 90 | 0.0 | 0.0 | 0.00 | 0.00 | 0.00 | 97 | |
| 20260510045839 | 51 | 45 | 2.0 | 2.0 | 0.00 | 0.00 | 0.00 | 97 | |
| 20260510044839 | 51 | 338 | 2.0 | 2.0 | 0.00 | 0.00 | 0.00 | 97 | |
| 20260510043839 | 52 | 0 | 0.0 | 0.0 | 0.00 | 0.00 | 0.00 | 97 | |
| 20260510042850 | 52 | 45 | 2.0 | 2.0 | 0.00 | 0.00 | 0.00 | 96 | |
| 20260510042839 | 52 | 23 | 3.0 | 3.0 | 0.00 | 0.00 | 0.00 | 96 | |
| 20260510041839 | 52 | 293 | 0.0 | 0.0 | 0.00 | 0.00 | 0.00 | 96 | |
| 20260510040839 | 52 | 338 | 0.0 | 0.0 | 0.00 | 0.00 | 0.00 | 96 | |
| 20260510040030 | 52 | 23 | 2.0 | 2.0 | 0.00 | 0.00 | 0.00 | 96 | |
| 20260510035839 | 52 | 23 | 2.0 | 2.0 | 0.00 | 0.00 | 0.00 | 96 | |
| 20260510034839 | 52 | 338 | 3.0 | 3.0 | 0.00 | 0.00 | 0.00 | 95 | |
| 20260510033839 | 52 | 68 | 0.0 | 0.0 | 0.00 | 0.00 | 0.00 | 94 | |
| 20260510032839 | 53 | 180 | 0.0 | 0.0 | 0.00 | 0.00 | 0.00 | 93 | |
| 20260510031839 | 54 | 135 | 1.0 | 1.0 | 0.00 | 0.00 | 0.00 | 93 | |
| 20260510030839 | 54 | 68 | 4.0 | 4.0 | 0.00 | 0.00 | 0.00 | 93 | |
| 20260510025839 | 54 | 113 | 2.0 | 2.0 | 0.00 | 0.00 | 0.00 | 92 | |
| 20260510024839 | 54 | 68 | 4.0 | 4.0 | 0.00 | 0.00 | 0.00 | 91 | |
| 20260510023839 | 55 | 68 | 3.0 | 3.0 | 0.00 | 0.00 | 0.00 | 91 | |
| 20260510022839 | 55 | 90 | 3.0 | 3.0 | 0.00 | 0.00 | 0.00 | 90 | |
| 20260510021840 | 55 | 90 | 3.0 | 3.0 | 0.00 | 0.00 | 0.00 | 90 | |
| 20260510020851 | 55 | 23 | 3.0 | 3.0 | 0.00 | 0.00 | 0.00 | 90 | |
| 20260510020840 | 55 | 23 | 4.0 | 4.0 | 0.00 | 0.00 | 0.00 | 90 | |
| 20260510015840 | 55 | 90 | 5.0 | 5.0 | 0.00 | 0.00 | 0.00 | 90 | |
| 20260510014840 | 55 | 90 | 3.0 | 3.0 | 0.00 | 0.00 | 0.00 | 89 | |
| 20260510013840 | 55 | 90 | 2.0 | 2.0 | 0.00 | 0.00 | 0.00 | 88 | |
| 20260510012840 | 56 | 90 | 4.0 | 4.0 | 0.00 | 0.00 | 0.00 | 88 | |
| 20260510011915 | 56 | 90 | 3.0 | 3.0 | 0.00 | 0.00 | 0.00 | 87 | |
| 20260510011840 | 56 | 90 | 3.0 | 3.0 | 0.00 | 0.00 | 0.00 | 87 | |
| 20260510010840 | 56 | 68 | 4.0 | 4.0 | 0.00 | 0.00 | 0.00 | 87 | |
| 20260510005839 | 57 | 113 | 2.0 | 2.0 | 0.00 | 0.00 | 0.00 | 86 | |
| 20260510004839 | 57 | 45 | 5.0 | 5.0 | 0.00 | 0.00 | 0.00 | 86 | |
| 20260510003839 | 57 | 45 | 3.0 | 3.0 | 0.00 | 0.00 | 0.00 | 86 | |
| 20260510002839 | 57 | 68 | 4.0 | 4.0 | 0.00 | 0.00 | 0.00 | 85 | |
| 20260510001839 | 57 | 45 | 2.0 | 2.0 | 0.00 | 0.00 | 0.00 | 84 | |
| 20260510000839 | 58 | 68 | 2.0 | 2.0 | 0.00 | 0.00 | 0.00 | 83 | |
| 20260509235839 | 59 | 45 | 0.0 | 0.0 | 0.00 | 0.00 | 0.00 | 82 | |
| 20260509234839 | 60 | 45 | 2.0 | 2.0 | 0.00 | 0.00 | 0.00 | 80 | |
| 20260509233958 | 61 | 45 | 2.0 | 2.0 | 0.00 | 0.00 | 0.00 | 79 | |
| 20260509233839 | 61 | 45 | 2.0 | 2.0 | 0.00 | 0.00 | 0.00 | 79 | |
| 20260509232852 | 61 | 90 | 3.0 | 3.0 | 0.00 | 0.00 | 0.00 | 78 | |
| 20260509232839 | 61 | 90 | 2.0 | 2.0 | 0.00 | 0.00 | 0.00 | 78 | |
| 20260509231839 | 62 | 0 | 2.0 | 2.0 | 0.00 | 0.00 | 0.00 | 77 | |
| 20260509230839 | 63 | 45 | 4.0 | 4.0 | 0.00 | 0.00 | 0.00 | 76 | |
| 20260509230122 | 62 | 113 | 6.0 | 6.0 | 0.00 | 0.00 | 0.00 | 76 | |
| 20260509225839 | 62 | 113 | 6.0 | 6.0 | 0.00 | 0.00 | 0.00 | 76 | |
| 20260509225103 | 62 | 45 | 4.0 | 4.0 | 0.00 | 0.00 | 0.00 | 78 | |
| 20260509224839 | 62 | 45 | 4.0 | 4.0 | 0.00 | 0.00 | 0.00 | 78 | |
| 20260509224052 | 62 | 68 | 3.0 | 3.0 | 0.00 | 0.00 | 0.00 | 77 | |
| 20260509223839 | 62 | 68 | 3.0 | 3.0 | 0.00 | 0.00 | 0.00 | 77 | |
| 20260509222839 | 62 | 0 | 5.0 | 5.0 | 0.00 | 0.00 | 0.00 | 76 | |
| 20260509222037 | 62 | 23 | 6.0 | 6.0 | 0.00 | 0.00 | 0.00 | 77 | |
| 20260509221850 | 62 | 23 | 6.0 | 6.0 | 0.00 | 0.00 | 0.00 | 77 | |
| 20260509221839 | 62 | 338 | 5.0 | 5.0 | 0.00 | 0.00 | 0.00 | 77 | |
| 20260509220839 | 62 | 0 | 4.0 | 4.0 | 0.00 | 0.00 | 0.00 | 77 | |
| 20260509220025 | 62 | 0 | 7.0 | 7.0 | 0.00 | 0.00 | 0.00 | 77 | |
| 20260509215850 | 62 | 0 | 7.0 | 7.0 | 0.00 | 0.00 | 0.00 | 77 | |
| 20260509215839 | 62 | 0 | 9.0 | 9.0 | 0.00 | 0.00 | 0.00 | 77 | |
| 20260509214839 | 62 | 315 | 4.0 | 4.0 | 0.00 | 0.00 | 0.00 | 77 | |
| 20260509213839 | 62 | 338 | 5.0 | 5.0 | 0.00 | 0.00 | 0.00 | 76 | |
| 20260509212839 | 62 | 23 | 4.0 | 4.0 | 0.00 | 0.00 | 0.00 | 75 | |
| 20260509211839 | 63 | 0 | 3.0 | 3.0 | 0.00 | 0.00 | 0.00 | 75 | |
| 20260509210851 | 63 | 68 | 6.0 | 6.0 | 0.00 | 0.00 | 0.00 | 75 | |
| 20260509210840 | 63 | 0 | 5.0 | 5.0 | 0.00 | 0.00 | 0.00 | 75 | |
| 20260509205840 | 63 | 338 | 8.0 | 8.0 | 0.00 | 0.00 | 0.00 | 75 | |
| 20260509204851 | 63 | 315 | 5.0 | 5.0 | 0.00 | 0.00 | 0.00 | 74 | |
| 20260509204840 | 63 | 315 | 7.0 | 7.0 | 0.00 | 0.00 | 0.00 | 74 |